createdAt,value
2017-10-06T00:01:45.251Z,-62
2017-10-06T00:04:13.734Z,-62
2017-10-06T00:06:42.271Z,-62
2017-10-06T00:09:11.287Z,-62
2017-10-06T00:11:40.207Z,-62
2017-10-06T00:14:08.523Z,-62
2017-10-06T00:16:36.959Z,-63
2017-10-06T00:19:05.857Z,-62
2017-10-06T00:21:34.331Z,-62
2017-10-06T00:24:02.628Z,-62
2017-10-06T00:26:30.912Z,-61
2017-10-06T00:28:59.203Z,-61
2017-10-06T00:31:27.763Z,-61
2017-10-06T00:33:56.126Z,-61
2017-10-06T00:36:24.497Z,-61
2017-10-06T00:38:52.908Z,-62
2017-10-06T00:41:21.203Z,-62
2017-10-06T00:43:49.897Z,-64
2017-10-06T00:46:18.186Z,-62
2017-10-06T00:48:46.600Z,-63
2017-10-06T00:51:14.967Z,-64
2017-10-06T00:53:44.090Z,-63
2017-10-06T00:56:12.494Z,-63
2017-10-06T00:58:41.904Z,-62
2017-10-06T01:01:11.603Z,-63
2017-10-06T01:03:39.915Z,-63
2017-10-06T01:06:08.243Z,-63
2017-10-06T01:08:36.734Z,-63
2017-10-06T01:11:06.017Z,-63
2017-10-06T01:13:34.687Z,-63
2017-10-06T01:16:03.059Z,-63
2017-10-06T01:18:32.107Z,-63
2017-10-06T01:21:00.599Z,-63
2017-10-06T01:23:29.487Z,-63
2017-10-06T01:25:58.766Z,-63
2017-10-06T01:28:27.306Z,-62
2017-10-06T01:30:56.402Z,-62
2017-10-06T01:33:25.823Z,-62
2017-10-06T01:35:54.130Z,-62
2017-10-06T01:38:22.454Z,-62
2017-10-06T01:40:51.583Z,-62
2017-10-06T01:43:19.867Z,-62
2017-10-06T01:45:48.536Z,-62
2017-10-06T01:48:16.891Z,-62
2017-10-06T01:50:45.271Z,-63
2017-10-06T01:53:14.362Z,-63
2017-10-06T01:55:43.562Z,-62
2017-10-06T01:58:11.891Z,-63
2017-10-06T02:00:40.806Z,-63
2017-10-06T02:03:09.233Z,-63
2017-10-06T02:05:37.748Z,-63
2017-10-06T02:08:06.070Z,-63
2017-10-06T02:10:35.563Z,-63
2017-10-06T02:13:03.924Z,-63
2017-10-06T02:15:32.901Z,-63
2017-10-06T02:18:01.339Z,-63
2017-10-06T02:20:29.866Z,-63
2017-10-06T02:22:58.331Z,-64
2017-10-06T02:25:26.658Z,-63
2017-10-06T02:27:54.954Z,-63
2017-10-06T02:30:24.174Z,-64
2017-10-06T02:32:52.898Z,-64
2017-10-06T02:35:21.590Z,-64
2017-10-06T02:37:50.054Z,-64
2017-10-06T02:40:18.508Z,-63
2017-10-06T02:42:46.987Z,-63
2017-10-06T02:45:15.584Z,-64
2017-10-06T02:47:43.885Z,-63
2017-10-06T02:50:12.163Z,-63
2017-10-06T02:52:40.532Z,-63
2017-10-06T02:55:08.993Z,-63
2017-10-06T02:57:37.287Z,-63
2017-10-06T03:00:05.747Z,-63
2017-10-06T03:02:34.102Z,-63
2017-10-06T03:05:03.167Z,-63
2017-10-06T03:07:31.447Z,-63
2017-10-06T03:10:00.498Z,-63
2017-10-06T03:12:29.319Z,-63
2017-10-06T03:14:57.623Z,-63
2017-10-06T03:17:26.159Z,-63
2017-10-06T03:19:54.430Z,-63
2017-10-06T03:22:22.732Z,-63
2017-10-06T03:24:51.064Z,-63
2017-10-06T03:27:19.418Z,-63
2017-10-06T03:29:47.720Z,-63
2017-10-06T03:32:16.019Z,-63
2017-10-06T03:34:44.722Z,-63
2017-10-06T03:37:13.027Z,-63
2017-10-06T03:39:41.411Z,-63
2017-10-06T03:42:09.686Z,-63
2017-10-06T03:44:38.029Z,-63
2017-10-06T03:47:06.302Z,-63
2017-10-06T03:49:34.787Z,-63
2017-10-06T03:52:03.511Z,-63
2017-10-06T03:54:31.779Z,-63
2017-10-06T03:57:00.969Z,-63
2017-10-06T03:59:29.250Z,-63
2017-10-06T04:01:57.559Z,-63
2017-10-06T04:07:25.215Z,-63
2017-10-06T04:09:55.014Z,-63
2017-10-06T04:12:23.330Z,-63
2017-10-06T04:14:52.778Z,-63
2017-10-06T04:17:21.055Z,-63
2017-10-06T04:19:49.741Z,-63
2017-10-06T04:22:18.196Z,-63
2017-10-06T04:24:46.491Z,-62
2017-10-06T04:27:14.771Z,-63
2017-10-06T04:29:43.052Z,-63
2017-10-06T04:32:11.345Z,-63
2017-10-06T04:34:40.062Z,-63
2017-10-06T04:37:09.121Z,-63
2017-10-06T04:39:37.434Z,-63
2017-10-06T04:42:06.531Z,-63
2017-10-06T04:44:35.547Z,-63
2017-10-06T04:47:03.867Z,-63
2017-10-06T04:49:32.222Z,-62
2017-10-06T04:52:00.515Z,-63
2017-10-06T04:54:28.831Z,-62
2017-10-06T04:56:58.404Z,-63
2017-10-06T04:59:26.886Z,-63
2017-10-06T05:01:55.219Z,-63
2017-10-06T05:04:24.293Z,-63
2017-10-06T05:06:53.411Z,-63
2017-10-06T05:09:22.479Z,-63
2017-10-06T05:11:50.845Z,-63
2017-10-06T05:14:19.207Z,-63
2017-10-06T05:16:47.815Z,-63
2017-10-06T05:19:16.603Z,-63
2017-10-06T05:21:45.463Z,-63
2017-10-06T05:24:13.946Z,-63
2017-10-06T05:26:42.251Z,-63
2017-10-06T05:29:11.344Z,-63
2017-10-06T05:31:39.646Z,-63
2017-10-06T05:34:08.703Z,-63
2017-10-06T05:36:37.472Z,-63
2017-10-06T05:39:06.195Z,-63
2017-10-06T05:41:34.482Z,-63
2017-10-06T05:44:02.808Z,-63
2017-10-06T05:46:31.302Z,-63
2017-10-06T05:48:59.630Z,-63
2017-10-06T05:51:28.695Z,-63
2017-10-06T05:53:57.003Z,-63
2017-10-06T05:56:26.175Z,-63
2017-10-06T05:58:54.446Z,-59
2017-10-06T06:01:22.791Z,-58
2017-10-06T06:03:51.203Z,-58
2017-10-06T06:06:19.533Z,-58
2017-10-06T06:08:48.046Z,-59
2017-10-06T06:11:16.439Z,-59
2017-10-06T06:13:45.008Z,-59
2017-10-06T06:16:13.706Z,-59
2017-10-06T06:18:42.048Z,-59
2017-10-06T06:21:10.452Z,-59
2017-10-06T06:23:39.015Z,-59
2017-10-06T06:26:07.307Z,-59
2017-10-06T06:28:35.688Z,-59
2017-10-06T06:31:03.983Z,-59
2017-10-06T06:33:32.319Z,-59
2017-10-06T06:36:00.955Z,-59
2017-10-06T06:38:29.307Z,-58
2017-10-06T06:40:57.660Z,-59
2017-10-06T06:43:26.015Z,-59
2017-10-06T06:45:55.075Z,-59
2017-10-06T06:48:23.390Z,-59
2017-10-06T06:50:52.427Z,-59
2017-10-06T06:53:20.917Z,-59
2017-10-06T06:55:49.283Z,-59
2017-10-06T06:58:17.936Z,-59
2017-10-06T07:00:47.163Z,-58
2017-10-06T07:03:15.453Z,-58
2017-10-06T07:05:43.882Z,-58
2017-10-06T07:08:12.195Z,-59
2017-10-06T07:10:40.573Z,-59
2017-10-06T07:13:08.907Z,-59
2017-10-06T07:15:37.337Z,-59
2017-10-06T07:18:06.094Z,-59
2017-10-06T07:20:34.405Z,-59
2017-10-06T07:23:02.831Z,-59
2017-10-06T07:25:31.563Z,-59
2017-10-06T07:27:59.866Z,-59
2017-10-06T07:30:28.329Z,-59
2017-10-06T07:32:56.657Z,-59
2017-10-06T07:35:25.390Z,-59
2017-10-06T07:37:54.198Z,-59
2017-10-06T07:40:22.502Z,-55
2017-10-06T07:42:50.780Z,-55
2017-10-06T07:45:34.191Z,-55
2017-10-06T07:48:02.869Z,-55
2017-10-06T07:50:31.271Z,-55
2017-10-06T07:52:59.555Z,-55
2017-10-06T07:55:27.823Z,-55
2017-10-06T07:57:56.688Z,-55
2017-10-06T08:00:24.991Z,-55
2017-10-06T08:02:53.296Z,-55
2017-10-06T08:05:21.571Z,-55
2017-10-06T08:07:49.895Z,-55
2017-10-06T08:10:18.343Z,-55
2017-10-06T08:12:46.630Z,-55
2017-10-06T08:15:15.388Z,-55
2017-10-06T08:17:44.644Z,-55
2017-10-06T08:20:12.965Z,-55
2017-10-06T08:22:42.087Z,-55
2017-10-06T08:25:10.490Z,-55
2017-10-06T08:27:39.787Z,-55
2017-10-06T08:30:08.116Z,-55
2017-10-06T08:32:36.574Z,-55
2017-10-06T08:35:04.919Z,-55
2017-10-06T08:37:33.280Z,-55
2017-10-06T08:40:01.629Z,-55
2017-10-06T08:42:30.031Z,-59
2017-10-06T08:44:58.358Z,-59
2017-10-06T08:47:26.659Z,-59
2017-10-06T08:49:54.947Z,-59
2017-10-06T08:52:24.422Z,-59
2017-10-06T08:54:52.772Z,-60
2017-10-06T08:57:21.112Z,-59
2017-10-06T08:59:49.390Z,-59
2017-10-06T09:02:18.431Z,-59
2017-10-06T09:04:46.741Z,-59
2017-10-06T09:07:15.013Z,-60
2017-10-06T09:09:44.775Z,-59
2017-10-06T09:12:18.023Z,-60
2017-10-06T09:14:46.603Z,-60
2017-10-06T09:17:15.590Z,-60
2017-10-06T09:19:43.906Z,-58
2017-10-06T09:22:12.979Z,-58
2017-10-06T09:24:41.311Z,-54
2017-10-06T09:27:09.571Z,-54
2017-10-06T09:29:38.279Z,-54
2017-10-06T09:32:06.584Z,-54
2017-10-06T09:34:34.875Z,-54
2017-10-06T09:37:04.361Z,-54
2017-10-06T09:39:32.658Z,-54
2017-10-06T09:42:00.997Z,-54
2017-10-06T09:44:29.343Z,-54
2017-10-06T09:46:57.671Z,-54
2017-10-06T09:49:26.122Z,-56
2017-10-06T09:51:54.628Z,-54
2017-10-06T09:54:22.915Z,-54
2017-10-06T09:56:51.202Z,-54
2017-10-06T09:59:19.495Z,-54
2017-10-06T10:01:48.963Z,-54
2017-10-06T10:04:17.439Z,-54
2017-10-06T10:06:45.891Z,-54
2017-10-06T10:09:14.180Z,-54
2017-10-06T10:11:42.522Z,-54
2017-10-06T10:14:11.712Z,-54
2017-10-06T10:16:40.281Z,-54
2017-10-06T10:19:08.583Z,-58
2017-10-06T10:21:37.014Z,-58
2017-10-06T10:24:05.318Z,-58
2017-10-06T10:26:33.603Z,-58
2017-10-06T10:29:01.891Z,-58
2017-10-06T10:31:30.710Z,-58
2017-10-06T10:33:59.110Z,-58
2017-10-06T10:36:27.402Z,-58
2017-10-06T10:38:55.670Z,-58
2017-10-06T10:41:24.378Z,-58
2017-10-06T10:43:52.667Z,-58
2017-10-06T10:46:21.749Z,-58
2017-10-06T10:48:50.154Z,-58
2017-10-06T10:51:18.570Z,-59
2017-10-06T10:53:47.112Z,-59
2017-10-06T10:56:15.531Z,-58
2017-10-06T10:58:43.947Z,-60
2017-10-06T11:01:12.401Z,-59
2017-10-06T11:03:40.890Z,-59
2017-10-06T11:06:09.266Z,-60
2017-10-06T11:08:37.926Z,-58
2017-10-06T11:11:06.313Z,-60
2017-10-06T11:13:34.770Z,-58
2017-10-06T11:16:03.363Z,-54
2017-10-06T11:18:31.863Z,-54
2017-10-06T11:21:00.498Z,-54
2017-10-06T11:23:28.944Z,-54
2017-10-06T11:25:57.323Z,-54
2017-10-06T11:28:25.739Z,-55
2017-10-06T11:30:54.094Z,-54
2017-10-06T11:33:22.994Z,-54
2017-10-06T11:35:51.470Z,-54
2017-10-06T11:38:19.843Z,-58
2017-10-06T11:40:48.534Z,-59
2017-10-06T11:43:16.932Z,-59
2017-10-06T11:45:45.330Z,-59
2017-10-06T11:48:14.451Z,-59
2017-10-06T11:50:43.027Z,-60
2017-10-06T11:53:11.542Z,-60
2017-10-06T11:55:40.330Z,-60
2017-10-06T11:58:08.698Z,-55
2017-10-06T12:00:37.095Z,-55
2017-10-06T12:03:05.505Z,-55
2017-10-06T12:05:34.051Z,-55
2017-10-06T12:08:02.509Z,-58
2017-10-06T12:10:30.898Z,-55
2017-10-06T12:12:59.240Z,-55
2017-10-06T12:15:27.606Z,-55
2017-10-06T12:17:56.015Z,-56
2017-10-06T12:20:24.818Z,-56
2017-10-06T12:22:53.132Z,-56
2017-10-06T12:25:21.510Z,-56
2017-10-06T12:27:49.863Z,-55
2017-10-06T12:30:18.267Z,-56
2017-10-06T12:32:46.619Z,-56
2017-10-06T12:35:15.238Z,-55
2017-10-06T12:37:43.647Z,-55
2017-10-06T12:40:12.048Z,-56
2017-10-06T12:42:40.619Z,-56
2017-10-06T12:45:09.316Z,-55
2017-10-06T12:47:37.695Z,-55
2017-10-06T12:50:06.219Z,-55
2017-10-06T12:52:34.570Z,-56
2017-10-06T12:55:02.995Z,-55
2017-10-06T12:57:31.427Z,-54
2017-10-06T12:59:59.999Z,-54
2017-10-06T13:02:28.871Z,-54
2017-10-06T13:04:57.241Z,-54
2017-10-06T13:07:26.363Z,-54
2017-10-06T13:09:54.714Z,-59
2017-10-06T13:12:23.103Z,-58
2017-10-06T13:14:52.171Z,-58
2017-10-06T13:17:20.489Z,-59
2017-10-06T13:19:49.158Z,-59
2017-10-06T13:22:18.225Z,-58
2017-10-06T13:24:46.686Z,-59
2017-10-06T13:27:15.103Z,-55
2017-10-06T13:29:44.864Z,-59
2017-10-06T13:32:13.327Z,-59
2017-10-06T13:34:41.604Z,-59
2017-10-06T13:37:10.233Z,-59
2017-10-06T13:39:38.550Z,-59
2017-10-06T13:42:07.302Z,-59
2017-10-06T13:44:35.597Z,-59
2017-10-06T13:47:03.902Z,-59
2017-10-06T13:49:32.211Z,-59
2017-10-06T13:52:00.535Z,-61
2017-10-06T13:54:28.869Z,-58
2017-10-06T13:56:57.186Z,-58
2017-10-06T13:59:25.491Z,-58
2017-10-06T14:01:54.967Z,-60
2017-10-06T14:04:23.265Z,-58
2017-10-06T14:06:52.475Z,-58
2017-10-06T14:09:20.963Z,-58
2017-10-06T14:11:49.276Z,-58
2017-10-06T14:14:17.749Z,-58
2017-10-06T14:16:46.207Z,-58
2017-10-06T14:19:14.691Z,-58
2017-10-06T14:21:44.022Z,-58
2017-10-06T14:24:12.348Z,-58
2017-10-06T14:26:40.663Z,-58
2017-10-06T14:29:09.052Z,-61
2017-10-06T14:31:37.502Z,-59
2017-10-06T14:34:06.091Z,-58
2017-10-06T14:36:34.836Z,-59
2017-10-06T14:39:04.239Z,-60
2017-10-06T14:41:32.695Z,-60
2017-10-06T14:44:01.268Z,-60
2017-10-06T14:46:29.619Z,-59
2017-10-06T14:48:58.028Z,-59
2017-10-06T14:51:26.587Z,-59
2017-10-06T14:53:54.895Z,-59
2017-10-06T14:56:23.190Z,-59
2017-10-06T14:58:51.476Z,-59
2017-10-06T15:01:20.121Z,-59
2017-10-06T15:03:48.407Z,-59
2017-10-06T15:06:16.742Z,-59
2017-10-06T15:08:45.959Z,-60
2017-10-06T15:11:14.462Z,-59
2017-10-06T15:13:42.952Z,-59
2017-10-06T15:16:11.252Z,-59
2017-10-06T15:18:39.563Z,-59
2017-10-06T15:21:08.587Z,-58
2017-10-06T15:23:37.339Z,-59
2017-10-06T15:26:06.361Z,-59
2017-10-06T15:28:34.859Z,-59
2017-10-06T15:31:03.165Z,-58
2017-10-06T15:33:31.462Z,-59
2017-10-06T15:36:00.894Z,-59
2017-10-06T15:38:29.207Z,-59
2017-10-06T15:40:58.081Z,-58
2017-10-06T15:43:26.914Z,-59
2017-10-06T15:45:55.391Z,-59
2017-10-06T15:48:24.141Z,-54
2017-10-06T15:50:52.470Z,-54
2017-10-06T15:53:21.717Z,-54
2017-10-06T15:55:50.199Z,-54
2017-10-06T15:58:18.555Z,-54
2017-10-06T16:00:46.840Z,-55
2017-10-06T16:03:15.618Z,-54
2017-10-06T16:05:43.989Z,-54
2017-10-06T16:11:16.010Z,-49
2017-10-06T16:13:44.244Z,-51
2017-10-06T16:16:12.439Z,-50
2017-10-06T16:18:40.715Z,-52
2017-10-06T16:21:08.835Z,-52
2017-10-06T16:23:37.711Z,-52
2017-10-06T16:26:07.333Z,-53
2017-10-06T16:28:36.597Z,-53
2017-10-06T16:31:04.796Z,-53
2017-10-06T16:33:32.934Z,-53
2017-10-06T16:36:01.079Z,-53
2017-10-06T16:38:29.230Z,-53
2017-10-06T16:40:58.282Z,-53
2017-10-06T16:43:26.433Z,-53
2017-10-06T16:45:54.572Z,-53
2017-10-06T16:48:22.730Z,-52
2017-10-06T16:50:50.875Z,-52
2017-10-06T16:53:19.341Z,-53
2017-10-06T16:55:47.514Z,-53
2017-10-06T16:58:15.629Z,-53
2017-10-06T17:00:43.813Z,-53
2017-10-06T17:03:12.752Z,-53
2017-10-06T17:05:41.044Z,-54
2017-10-06T17:08:09.201Z,-54
2017-10-06T17:10:37.311Z,-53
2017-10-06T17:13:05.463Z,-54
2017-10-06T17:15:33.703Z,-54
2017-10-06T17:18:03.020Z,-54
2017-10-06T17:20:31.138Z,-54
2017-10-06T17:22:59.277Z,-54
2017-10-06T17:25:27.387Z,-57
2017-10-06T17:27:55.522Z,-56
2017-10-06T17:30:23.731Z,-55
2017-10-06T17:32:52.233Z,-55
2017-10-06T17:35:20.415Z,-55
2017-10-06T17:37:49.310Z,-54
2017-10-06T17:40:18.201Z,-55
2017-10-06T17:42:47.007Z,-55
2017-10-06T17:45:15.144Z,-54
2017-10-06T17:47:44.778Z,-54
2017-10-06T17:50:13.663Z,-54
2017-10-06T17:52:42.550Z,-55
2017-10-06T17:55:11.851Z,-55
2017-10-06T17:57:40.846Z,-55
2017-10-06T18:00:08.991Z,-55
2017-10-06T18:02:37.122Z,-54
2017-10-06T18:05:05.311Z,-56
2017-10-06T18:07:33.906Z,-55
2017-10-06T18:10:02.104Z,-55
2017-10-06T18:12:30.305Z,-53
2017-10-06T18:14:58.504Z,-52
2017-10-06T18:17:26.702Z,-52
2017-10-06T18:19:54.846Z,-56
2017-10-06T18:22:22.986Z,-56
2017-10-06T18:24:51.285Z,-60
2017-10-06T18:27:19.438Z,-60
2017-10-06T18:29:47.964Z,-60
2017-10-06T18:32:16.095Z,-60
2017-10-06T18:34:44.288Z,-60
2017-10-06T18:37:13.118Z,-60
2017-10-06T18:39:41.258Z,-60
2017-10-06T18:42:10.267Z,-59
2017-10-06T18:44:38.603Z,-60
2017-10-06T18:47:06.732Z,-59
2017-10-06T18:49:34.894Z,-60
2017-10-06T18:52:03.054Z,-59
2017-10-06T18:54:32.211Z,-59
2017-10-06T18:57:00.344Z,-59
2017-10-06T18:59:28.455Z,-60
2017-10-06T19:01:56.609Z,-59
2017-10-06T19:04:24.730Z,-59
2017-10-06T19:06:52.875Z,-59
2017-10-06T19:09:21.025Z,-60
2017-10-06T19:11:49.150Z,-59
2017-10-06T19:14:17.661Z,-60
2017-10-06T19:16:46.523Z,-60
2017-10-06T19:19:14.663Z,-60
2017-10-06T19:21:42.798Z,-60
2017-10-06T19:24:10.939Z,-60
2017-10-06T19:26:39.079Z,-60
2017-10-06T19:29:07.623Z,-60
2017-10-06T19:31:35.774Z,-60
2017-10-06T19:34:03.911Z,-60
2017-10-06T19:36:32.413Z,-60
2017-10-06T19:39:00.626Z,-60
2017-10-06T19:41:29.535Z,-61
2017-10-06T19:43:57.726Z,-61
2017-10-06T19:46:26.333Z,-61
2017-10-06T19:48:54.491Z,-61
2017-10-06T19:51:22.684Z,-62
2017-10-06T19:53:50.839Z,-61
2017-10-06T19:56:19.688Z,-61
2017-10-06T19:58:47.842Z,-62
2017-10-06T20:01:15.968Z,-62
2017-10-06T20:03:44.120Z,-62
2017-10-06T20:06:12.243Z,-63
2017-10-06T20:08:40.389Z,-61
2017-10-06T20:11:08.539Z,-62
2017-10-06T20:13:36.670Z,-62
2017-10-06T20:16:04.884Z,-62
2017-10-06T20:18:33.451Z,-62
2017-10-06T20:21:02.607Z,-62
2017-10-06T20:23:30.723Z,-56
2017-10-06T20:25:59.598Z,-56
2017-10-06T20:28:29.544Z,-56
2017-10-06T20:30:57.682Z,-56
2017-10-06T20:33:25.850Z,-55
2017-10-06T20:35:53.982Z,-55
2017-10-06T20:38:22.136Z,-55
2017-10-06T20:40:51.046Z,-55
2017-10-06T20:43:19.498Z,-55
2017-10-06T20:45:47.682Z,-55
2017-10-06T20:48:16.109Z,-56
2017-10-06T20:50:44.243Z,-56
2017-10-06T20:53:12.385Z,-56
2017-10-06T20:55:40.570Z,-56
2017-10-06T20:58:08.705Z,-56
2017-10-06T21:00:36.863Z,-56
2017-10-06T21:03:05.035Z,-56
2017-10-06T21:05:33.143Z,-56
2017-10-06T21:08:01.304Z,-56
2017-10-06T21:10:29.463Z,-56
2017-10-06T21:12:57.611Z,-56
2017-10-06T21:15:25.734Z,-55
2017-10-06T21:17:53.852Z,-55
2017-10-06T21:20:22.291Z,-55
2017-10-06T21:22:51.936Z,-55
2017-10-06T21:25:20.792Z,-55
2017-10-06T21:27:48.927Z,-55
2017-10-06T21:30:17.075Z,-55
2017-10-06T21:32:45.207Z,-55
2017-10-06T21:35:13.315Z,-55
2017-10-06T21:37:42.171Z,-55
2017-10-06T21:40:10.589Z,-55
2017-10-06T21:42:38.724Z,-55
2017-10-06T21:45:06.858Z,-55
2017-10-06T21:47:34.967Z,-55
2017-10-06T21:50:03.487Z,-55
2017-10-06T21:52:32.127Z,-55
2017-10-06T21:55:00.306Z,-55
2017-10-06T21:57:28.442Z,-55
2017-10-06T21:59:56.636Z,-55
2017-10-06T22:02:26.090Z,-59
2017-10-06T22:04:54.237Z,-59
2017-10-06T22:07:22.471Z,-59
2017-10-06T22:09:50.610Z,-59
2017-10-06T22:12:18.747Z,-59
2017-10-06T22:14:46.887Z,-59
2017-10-06T22:17:15.030Z,-59
2017-10-06T22:19:43.178Z,-59
2017-10-06T22:22:11.332Z,-59
2017-10-06T22:24:40.082Z,-59
2017-10-06T22:27:08.229Z,-59
2017-10-06T22:29:36.438Z,-59
2017-10-06T22:32:04.606Z,-59
2017-10-06T22:34:33.475Z,-59
2017-10-06T22:37:01.618Z,-59
2017-10-06T22:39:29.794Z,-59
2017-10-06T22:41:57.922Z,-59
2017-10-06T22:44:26.039Z,-59
2017-10-06T22:46:54.164Z,-59
2017-10-06T22:49:22.310Z,-59
2017-10-06T22:51:50.887Z,-59
2017-10-06T22:54:19.062Z,-59
2017-10-06T22:56:47.190Z,-59
2017-10-06T22:59:15.314Z,-59
2017-10-06T23:01:43.454Z,-59
2017-10-06T23:04:11.582Z,-59
2017-10-06T23:06:40.518Z,-59
2017-10-06T23:09:08.646Z,-59
2017-10-06T23:11:37.511Z,-59
2017-10-06T23:14:05.651Z,-59
2017-10-06T23:16:34.167Z,-59
2017-10-06T23:19:02.307Z,-59
2017-10-06T23:21:30.434Z,-59
2017-10-06T23:23:58.553Z,-59
2017-10-06T23:26:26.674Z,-59
2017-10-06T23:28:54.788Z,-59
2017-10-06T23:31:22.926Z,-59
2017-10-06T23:33:51.063Z,-59
2017-10-06T23:36:19.263Z,-59
2017-10-06T23:38:48.907Z,-59
2017-10-06T23:41:17.358Z,-59
2017-10-06T23:43:45.510Z,-59
2017-10-06T23:46:13.651Z,-59
2017-10-06T23:48:41.786Z,-59
2017-10-06T23:51:10.675Z,-59
2017-10-06T23:53:39.691Z,-59
2017-10-06T23:56:07.828Z,-59
2017-10-06T23:58:35.935Z,-59
